Time;durP1;ratioP1;P1;durP2;ratioP2;P2;SDS_P1;SDS_P2;PMS_P1;PMS_P2;Temp;Humidity;BMP_temperature;BMP_pressure;BME280_temperature;BME280_humidity;BME280_pressure;Samples;Min_cycle;Max_cycle;Signal;HPM_P1;HPM_P2
2023/01/24 00:04:47;;;;;;;3.25;1.40;;;;;;;;;;10369423;28;20040;-51
2023/01/24 00:09:48;;;;;;;4.32;1.27;;;;;;;;;;10369155;28;20389;-59
2023/01/24 00:14:48;;;;;;;4.93;1.30;;;;;;;;;;10369113;28;20037;-56
2023/01/24 00:19:49;;;;;;;3.05;1.50;;;;;;;;;;10369499;28;20397;-48
2023/01/24 00:24:49;;;;;;;4.03;1.50;;;;;;;;;;10369185;28;20095;-64
2023/01/24 00:29:50;;;;;;;1.55;1.20;;;;;;;;;;10367869;28;20133;-63
2023/01/24 00:34:50;;;;;;;2.55;1.33;;;;;;;;;;10369052;28;20029;-54
2023/01/24 00:39:51;;;;;;;4.75;1.45;;;;;;;;;;10368800;28;20456;-61
2023/01/24 00:44:52;;;;;;;3.83;1.60;;;;;;;;;;10368684;28;20103;-60
2023/01/24 00:49:52;;;;;;;3.03;1.40;;;;;;;;;;10367280;28;20038;-50
2023/01/24 00:54:53;;;;;;;3.33;1.50;;;;;;;;;;10367015;28;20069;-56
2023/01/24 00:59:53;;;;;;;1.67;1.30;;;;;;;;;;10367659;28;20029;-52
2023/01/24 01:04:54;;;;;;;4.38;1.67;;;;;;;;;;10366717;28;20377;-58
2023/01/24 01:09:54;;;;;;;2.75;1.40;;;;;;;;;;10366616;28;20022;-66
2023/01/24 01:14:55;;;;;;;1.55;1.30;;;;;;;;;;10367006;28;20029;-57
2023/01/24 01:19:56;;;;;;;4.65;1.60;;;;;;;;;;10367178;28;20060;-56
2023/01/24 01:24:56;;;;;;;1.35;1.00;;;;;;;;;;10364583;28;20034;-61
2023/01/24 01:29:57;;;;;;;2.10;1.30;;;;;;;;;;10365242;28;20121;-54
2023/01/24 01:34:57;;;;;;;2.53;1.55;;;;;;;;;;10366855;28;20026;-56
2023/01/24 01:39:58;;;;;;;3.60;1.20;;;;;;;;;;10367310;28;20034;-54
2023/01/24 01:45:33;;;;;;;2.90;1.40;;;;;;;;;;10364949;28;20025;-56
2023/01/24 01:50:39;;;;;;;2.85;1.50;;;;;;;;;;10355615;28;20059;-55
2023/01/24 01:55:46;;;;;;;3.35;1.20;;;;;;;;;;10364919;28;20054;-49
2023/01/24 02:00:50;;;;;;;3.47;1.30;;;;;;;;;;10363469;28;20038;-60
2023/01/24 02:05:51;;;;;;;1.95;1.20;;;;;;;;;;10365265;28;20379;-55
2023/01/24 02:16:14;;;;;;;2.08;1.38;;;;;;;;;;10364944;28;20030;-54
2023/01/24 02:21:16;;;;;;;4.70;1.25;;;;;;;;;;10365023;28;20026;-55
2023/01/24 02:26:27;;;;;;;1.58;1.10;;;;;;;;;;10363940;28;20455;-54
2023/01/24 02:31:28;;;;;;;4.35;1.20;;;;;;;;;;10362333;28;20026;-60
2023/01/24 02:36:36;;;;;;;1.80;1.10;;;;;;;;;;10364720;28;20105;-52
2023/01/24 02:41:51;;;;;;;1.58;1.48;;;;;;;;;;10364018;28;20158;-66
2023/01/24 02:46:51;;;;;;;1.42;1.00;;;;;;;;;;10353103;28;20076;-62
2023/01/24 03:02:30;;;;;;;1.55;1.20;;;;;;;;;;10372398;28;20030;-55
2023/01/24 03:07:41;;;;;;;1.05;1.00;;;;;;;;;;10371385;28;20038;-57
2023/01/24 03:44:37;;;;;;;3.28;1.48;;;;;;;;;;10371797;28;20138;-65
2023/01/24 03:54:59;;;;;;;3.05;1.35;;;;;;;;;;10370763;28;20046;-54
2023/01/24 03:59:59;;;;;;;1.52;1.15;;;;;;;;;;10369597;28;20034;-49
2023/01/24 04:05:12;;;;;;;1.98;1.10;;;;;;;;;;10370332;28;20034;-57
2023/01/24 04:10:13;;;;;;;1.10;0.80;;;;;;;;;;10370446;28;20044;-60
2023/01/24 04:15:30;;;;;;;1.73;1.10;;;;;;;;;;10369459;28;20047;-69
2023/01/24 04:20:34;;;;;;;3.13;1.02;;;;;;;;;;10369945;28;20026;-59
2023/01/24 04:25:34;;;;;;;2.65;1.02;;;;;;;;;;10369908;28;20026;-56
2023/01/24 04:30:35;;;;;;;1.05;1.00;;;;;;;;;;10369048;28;20501;-72
2023/01/24 04:35:35;;;;;;;2.80;1.20;;;;;;;;;;10368106;28;20033;-66
2023/01/24 04:40:36;;;;;;;2.17;1.27;;;;;;;;;;10368709;28;20030;-67
2023/01/24 04:45:37;;;;;;;1.58;1.00;;;;;;;;;;10367574;28;20496;-69
2023/01/24 04:50:37;;;;;;;0.90;0.90;;;;;;;;;;10366999;28;20046;-61
2023/01/24 04:55:38;;;;;;;1.00;1.00;;;;;;;;;;10367760;28;20029;-65
2023/01/24 05:00:38;;;;;;;1.10;1.00;;;;;;;;;;10368403;28;20106;-69
2023/01/24 05:05:39;;;;;;;4.78;1.10;;;;;;;;;;10367574;28;20409;-61
2023/01/24 05:10:39;;;;;;;0.85;0.80;;;;;;;;;;10367370;28;20030;-56
2023/01/24 05:15:50;;;;;;;2.38;1.17;;;;;;;;;;10367123;28;20041;-51
2023/01/24 05:20:50;;;;;;;0.90;0.90;;;;;;;;;;10367279;28;20109;-72
2023/01/24 05:25:51;;;;;;;1.70;1.00;;;;;;;;;;10366955;28;20100;-67
2023/01/24 05:30:52;;;;;;;1.42;1.10;;;;;;;;;;10365689;28;20038;-71
2023/01/24 05:35:59;;;;;;;1.00;1.00;;;;;;;;;;10366936;28;20038;-46
2023/01/24 05:41:02;;;;;;;1.33;1.00;;;;;;;;;;10354778;28;20033;-54
2023/01/24 05:46:08;;;;;;;2.67;1.00;;;;;;;;;;10365372;28;20037;-60
2023/01/24 05:51:12;;;;;;;1.40;0.85;;;;;;;;;;10365407;28;20044;-70
2023/01/24 05:56:17;;;;;;;1.85;1.00;;;;;;;;;;10365793;28;20041;-67
2023/01/24 06:01:21;;;;;;;1.05;0.95;;;;;;;;;;10356972;28;20096;-65
2023/01/24 06:06:23;;;;;;;1.13;1.00;;;;;;;;;;10357920;28;20495;-66
2023/01/24 06:11:27;;;;;;;1.15;1.02;;;;;;;;;;10366236;28;20108;-69
2023/01/24 06:16:27;;;;;;;1.50;1.08;;;;;;;;;;10355608;28;20041;-66
2023/01/24 06:21:44;;;;;;;1.10;1.00;;;;;;;;;;10363257;28;20486;-69
2023/01/24 06:26:45;;;;;;;1.00;1.00;;;;;;;;;;10363663;28;20034;-47
2023/01/24 06:32:14;;;;;;;1.20;1.10;;;;;;;;;;10368139;28;20030;-48
2023/01/24 06:37:32;;;;;;;1.00;0.98;;;;;;;;;;10364260;28;20030;-45
2023/01/24 06:42:33;;;;;;;3.43;1.10;;;;;;;;;;10356590;28;20026;-44
2023/01/24 06:47:34;;;;;;;1.92;1.20;;;;;;;;;;10363923;28;20045;-45
2023/01/24 06:52:35;;;;;;;3.25;1.33;;;;;;;;;;10362015;28;20080;-52
2023/01/24 06:57:35;;;;;;;3.25;1.30;;;;;;;;;;10362104;28;20125;-45
2023/01/24 07:02:36;;;;;;;3.40;1.20;;;;;;;;;;10361112;28;20042;-46
2023/01/24 07:07:38;;;;;;;2.33;1.73;;;;;;;;;;10360263;28;20030;-53
2023/01/24 07:12:42;;;;;;;6.82;1.40;;;;;;;;;;10358433;28;20056;-52
2023/01/24 07:17:43;;;;;;;9.57;1.85;;;;;;;;;;10360741;28;20160;-52
2023/01/24 07:22:44;;;;;;;10.73;2.20;;;;;;;;;;10362425;28;20049;-46
2023/01/24 07:27:46;;;;;;;4.90;1.67;;;;;;;;;;10363922;28;20045;-59
2023/01/24 07:32:46;;;;;;;8.35;2.03;;;;;;;;;;10363646;28;20478;-60
2023/01/24 07:37:47;;;;;;;11.65;1.80;;;;;;;;;;10363996;28;20030;-57
2023/01/24 07:42:47;;;;;;;3.95;1.77;;;;;;;;;;10369697;28;20030;-51
2023/01/24 07:47:53;;;;;;;3.95;1.50;;;;;;;;;;10370264;28;20168;-47
2023/01/24 07:52:54;;;;;;;9.40;1.50;;;;;;;;;;10370325;28;20053;-46
2023/01/24 07:58:01;;;;;;;4.45;1.40;;;;;;;;;;10375042;28;20083;-49
2023/01/24 08:03:02;;;;;;;5.43;1.70;;;;;;;;;;10370187;28;20528;-48
2023/01/24 08:08:03;;;;;;;4.03;1.90;;;;;;;;;;10370096;28;20037;-53
2023/01/24 08:13:03;;;;;;;4.80;2.03;;;;;;;;;;10370384;28;20033;-51
2023/01/24 08:18:04;;;;;;;8.35;2.10;;;;;;;;;;10369975;28;20033;-51
2023/01/24 08:23:05;;;;;;;2.50;1.90;;;;;;;;;;10370045;28;20025;-49
2023/01/24 08:28:05;;;;;;;7.35;2.00;;;;;;;;;;10369332;28;20026;-50
2023/01/24 08:33:06;;;;;;;4.30;2.50;;;;;;;;;;10369852;28;20257;-56
2023/01/24 08:38:07;;;;;;;5.63;2.10;;;;;;;;;;10368219;28;20033;-64
2023/01/24 08:43:08;;;;;;;5.30;1.88;;;;;;;;;;10357645;28;20041;-58
2023/01/24 08:48:08;;;;;;;8.98;2.10;;;;;;;;;;10361423;28;20665;-62
2023/01/24 08:53:09;;;;;;;5.65;2.33;;;;;;;;;;10365698;28;20101;-65
2023/01/24 08:58:09;;;;;;;4.65;2.38;;;;;;;;;;10367562;28;20257;-54
2023/01/24 09:03:12;;;;;;;5.22;2.40;;;;;;;;;;10376672;28;20021;-50
2023/01/24 09:08:13;;;;;;;8.00;2.50;;;;;;;;;;10370942;28;20141;-47
2023/01/24 09:13:14;;;;;;;6.18;2.38;;;;;;;;;;10373856;28;20075;-52
2023/01/24 09:18:14;;;;;;;5.10;2.45;;;;;;;;;;10375321;28;20454;-57
2023/01/24 09:23:15;;;;;;;3.70;2.25;;;;;;;;;;10370017;28;20034;-62
2023/01/24 09:28:19;;;;;;;7.68;2.20;;;;;;;;;;10362820;28;20037;-49
2023/01/24 09:33:20;;;;;;;5.95;2.50;;;;;;;;;;10363988;28;20401;-50
2023/01/24 09:38:22;;;;;;;3.97;2.33;;;;;;;;;;10363436;28;20033;-49
2023/01/24 09:43:44;;;;;;;2.70;2.03;;;;;;;;;;10368842;28;20653;-62
2023/01/24 09:48:48;;;;;;;4.60;2.45;;;;;;;;;;10361869;28;20038;-51
2023/01/24 09:53:56;;;;;;;5.90;2.45;;;;;;;;;;10364017;28;20050;-54
2023/01/24 09:59:25;;;;;;;4.00;2.60;;;;;;;;;;10359229;28;20110;-64
2023/01/24 10:04:34;;;;;;;3.60;2.40;;;;;;;;;;10364537;28;20041;-66
2023/01/24 10:09:55;;;;;;;2.67;1.85;;;;;;;;;;10361125;28;20041;-65
2023/01/24 10:15:39;;;;;;;5.45;2.63;;;;;;;;;;10365009;28;20034;-66
2023/01/24 10:21:33;;;;;;;3.72;2.00;;;;;;;;;;10353848;28;20126;-67
2023/01/24 10:26:52;;;;;;;8.55;2.55;;;;;;;;;;10362190;28;20554;-66
2023/01/24 10:32:04;;;;;;;5.20;2.20;;;;;;;;;;10361276;28;20038;-66
2023/01/24 10:37:28;;;;;;;2.45;2.10;;;;;;;;;;10357638;28;20171;-67
2023/01/24 10:42:31;;;;;;;3.95;2.10;;;;;;;;;;10360538;28;20390;-66
2023/01/24 10:48:29;;;;;;;4.95;1.98;;;;;;;;;;10371560;28;20121;-66
2023/01/24 10:53:30;;;;;;;2.67;2.00;;;;;;;;;;10357878;28;20176;-46
2023/01/24 10:59:01;;;;;;;2.60;2.25;;;;;;;;;;10363189;28;21030;-67
2023/01/24 11:04:20;;;;;;;3.50;1.98;;;;;;;;;;10350548;28;20014;-64
2023/01/24 11:09:29;;;;;;;3.45;1.98;;;;;;;;;;10365315;28;20065;-64
2023/01/24 11:14:37;;;;;;;3.17;2.20;;;;;;;;;;10365267;28;20413;-59
2023/01/24 11:19:39;;;;;;;2.30;1.90;;;;;;;;;;10371878;28;20041;-51
2023/01/24 11:24:44;;;;;;;3.60;2.20;;;;;;;;;;10370270;28;20049;-56
2023/01/24 11:30:15;;;;;;;4.00;2.25;;;;;;;;;;10368828;28;20091;-53
2023/01/24 11:35:26;;;;;;;2.60;2.20;;;;;;;;;;10366918;28;20405;-57
2023/01/24 11:41:09;;;;;;;7.05;1.77;;;;;;;;;;10371001;28;20161;-49
2023/01/24 11:46:21;;;;;;;2.38;1.90;;;;;;;;;;10370110;28;20026;-66
2023/01/24 11:52:25;;;;;;;2.58;1.80;;;;;;;;;;10383511;28;20177;-66
2023/01/24 11:58:16;;;;;;;6.70;2.22;;;;;;;;;;10316530;28;20042;-67
2023/01/24 12:03:52;;;;;;;2.00;1.80;;;;;;;;;;10312378;28;20046;-66
2023/01/24 12:09:17;;;;;;;2.65;2.22;;;;;;;;;;10312360;28;20046;-63
2023/01/24 12:14:29;;;;;;;3.92;2.17;;;;;;;;;;10315314;28;20618;-64
2023/01/24 12:19:51;;;;;;;4.13;1.90;;;;;;;;;;10317335;28;20038;-63
2023/01/24 12:25:16;;;;;;;2.38;1.92;;;;;;;;;;10317736;28;20125;-66
2023/01/24 12:30:33;;;;;;;3.13;2.17;;;;;;;;;;10334930;28;20196;-67
2023/01/24 12:36:05;;;;;;;2.78;2.00;;;;;;;;;;10365441;28;20082;-59
2023/01/24 12:41:35;;;;;;;3.97;1.67;;;;;;;;;;10357993;28;20393;-60
2023/01/24 12:47:00;;;;;;;2.10;1.90;;;;;;;;;;10360226;28;20121;-62
2023/01/24 12:52:27;;;;;;;3.22;2.17;;;;;;;;;;10361360;28;20081;-51
2023/01/24 12:58:10;;;;;;;3.55;2.15;;;;;;;;;;10366277;28;20033;-60
2023/01/24 13:03:38;;;;;;;3.70;2.20;;;;;;;;;;10368308;28;20033;-46
2023/01/24 13:09:09;;;;;;;4.20;2.30;;;;;;;;;;10368898;28;20030;-56
2023/01/24 13:14:18;;;;;;;6.55;1.80;;;;;;;;;;10365969;28;20095;-47
2023/01/24 13:19:44;;;;;;;2.15;1.92;;;;;;;;;;10364268;28;20026;-46
2023/01/24 13:25:23;;;;;;;2.22;2.03;;;;;;;;;;10367276;28;20553;-49
2023/01/24 13:30:53;;;;;;;5.78;1.95;;;;;;;;;;10367870;28;20030;-48
2023/01/24 13:35:53;;;;;;;2.45;1.90;;;;;;;;;;10341422;28;20084;-47
2023/01/24 13:41:05;;;;;;;3.25;2.17;;;;;;;;;;10345810;28;20034;-61
2023/01/24 13:46:06;;;;;;;2.15;1.80;;;;;;;;;;10366444;28;20432;-57
2023/01/24 13:51:32;;;;;;;4.78;1.92;;;;;;;;;;10364587;28;20107;-48
2023/01/24 13:57:07;;;;;;;2.35;1.85;;;;;;;;;;10356940;28;20075;-63
2023/01/24 14:02:32;;;;;;;4.10;1.92;;;;;;;;;;10363610;28;20108;-60
2023/01/24 14:07:39;;;;;;;5.85;1.80;;;;;;;;;;10362921;28;20025;-47
2023/01/24 14:12:53;;;;;;;3.33;2.33;;;;;;;;;;10344616;28;20044;-64
2023/01/24 14:17:54;;;;;;;2.50;2.22;;;;;;;;;;10365947;28;20034;-60
2023/01/24 14:22:59;;;;;;;2.47;1.63;;;;;;;;;;10366030;28;20034;-64
2023/01/24 14:28:39;;;;;;;3.22;1.92;;;;;;;;;;10347824;28;20037;-48
2023/01/24 14:33:47;;;;;;;2.17;1.85;;;;;;;;;;10342346;28;20129;-51
2023/01/24 14:39:08;;;;;;;2.35;1.73;;;;;;;;;;10342961;28;20041;-56
2023/01/24 14:44:24;;;;;;;6.63;1.88;;;;;;;;;;10356313;28;20158;-52
2023/01/24 14:49:35;;;;;;;4.25;2.10;;;;;;;;;;10357649;28;20113;-52
2023/01/24 14:54:35;;;;;;;2.38;1.70;;;;;;;;;;10367488;28;20367;-54
2023/01/24 14:59:36;;;;;;;5.10;1.88;;;;;;;;;;10360041;28;20030;-55
2023/01/24 15:04:45;;;;;;;3.50;1.70;;;;;;;;;;10374287;28;20037;-54
2023/01/24 15:09:46;;;;;;;1.90;1.70;;;;;;;;;;10366572;28;20084;-47
2023/01/24 15:14:51;;;;;;;2.28;1.80;;;;;;;;;;10368867;28;20034;-52
2023/01/24 15:19:59;;;;;;;3.90;1.92;;;;;;;;;;10340607;28;20485;-54
2023/01/24 15:25:00;;;;;;;2.60;1.83;;;;;;;;;;10348552;28;20420;-54
2023/01/24 15:30:22;;;;;;;3.22;1.75;;;;;;;;;;10371535;28;20037;-55
2023/01/24 15:35:25;;;;;;;4.57;2.22;;;;;;;;;;10369357;28;20030;-57
2023/01/24 15:40:26;;;;;;;4.30;2.00;;;;;;;;;;10369896;28;20580;-48
2023/01/24 15:45:27;;;;;;;2.80;1.95;;;;;;;;;;10344233;28;20033;-55
2023/01/24 15:55:47;;;;;;;6.68;1.98;;;;;;;;;;10374831;28;20030;-66
2023/01/24 16:00:53;;;;;;;3.85;2.47;;;;;;;;;;10352955;28;20537;-52
2023/01/24 16:05:54;;;;;;;4.13;2.38;;;;;;;;;;10346138;28;20041;-60
2023/01/24 16:10:57;;;;;;;3.75;2.38;;;;;;;;;;10367508;28;20033;-63
2023/01/24 16:15:59;;;;;;;4.50;2.00;;;;;;;;;;10350744;28;20585;-62
2023/01/24 16:21:00;;;;;;;3.92;1.92;;;;;;;;;;10336949;28;20470;-63
2023/01/24 16:26:01;;;;;;;3.97;1.70;;;;;;;;;;10370896;28;20037;-66
2023/01/24 16:31:02;;;;;;;4.65;2.10;;;;;;;;;;10366736;28;20129;-56
2023/01/24 16:36:04;;;;;;;4.10;2.17;;;;;;;;;;10365987;28;20034;-62
2023/01/24 16:41:04;;;;;;;3.30;2.20;;;;;;;;;;10371522;28;20049;-58
2023/01/24 16:46:17;;;;;;;5.32;2.42;;;;;;;;;;10366383;28;20029;-61
2023/01/24 16:51:20;;;;;;;4.25;2.13;;;;;;;;;;10367116;28;20048;-47
2023/01/24 16:56:23;;;;;;;2.83;1.98;;;;;;;;;;10365409;28;20068;-63
2023/01/24 17:01:23;;;;;;;3.17;2.17;;;;;;;;;;10367578;28;20042;-64
2023/01/24 17:06:24;;;;;;;11.60;2.75;;;;;;;;;;10367235;28;20041;-66
2023/01/24 17:11:24;;;;;;;7.72;2.38;;;;;;;;;;10360870;28;20029;-62
2023/01/24 17:16:25;;;;;;;2.85;2.25;;;;;;;;;;10355427;28;20030;-61
2023/01/24 17:21:26;;;;;;;9.85;2.67;;;;;;;;;;10364961;28;20018;-55
2023/01/24 17:26:27;;;;;;;3.47;2.55;;;;;;;;;;10348442;28;20080;-66
2023/01/24 17:31:27;;;;;;;6.32;2.67;;;;;;;;;;10358243;28;20037;-47
2023/01/24 17:36:28;;;;;;;6.30;2.60;;;;;;;;;;10359905;28;20033;-60
2023/01/24 17:41:28;;;;;;;2.83;2.40;;;;;;;;;;10367876;28;20030;-69
2023/01/24 17:46:29;;;;;;;4.68;2.45;;;;;;;;;;10363977;28;20037;-66
2023/01/24 17:51:31;;;;;;;4.55;2.60;;;;;;;;;;10357263;28;20042;-66
2023/01/24 17:56:31;;;;;;;3.88;2.22;;;;;;;;;;10367306;28;20129;-57
2023/01/24 18:01:32;;;;;;;5.13;2.10;;;;;;;;;;10356996;28;20026;-65
2023/01/24 18:06:33;;;;;;;3.58;2.30;;;;;;;;;;10365849;28;20080;-50
2023/01/24 18:11:35;;;;;;;8.50;2.80;;;;;;;;;;10365221;28;20033;-52
2023/01/24 18:16:35;;;;;;;6.45;3.10;;;;;;;;;;10364881;28;20038;-46
2023/01/24 18:21:36;;;;;;;8.10;2.60;;;;;;;;;;10364454;28;20030;-46
2023/01/24 18:26:37;;;;;;;4.07;2.90;;;;;;;;;;10364986;28;20512;-46
2023/01/24 18:31:38;;;;;;;6.47;2.65;;;;;;;;;;10364449;28;20033;-49
2023/01/24 18:36:38;;;;;;;6.25;2.80;;;;;;;;;;10364838;28;20510;-65
2023/01/24 18:41:39;;;;;;;4.68;2.55;;;;;;;;;;10368140;28;20030;-67
2023/01/24 18:46:39;;;;;;;4.40;2.67;;;;;;;;;;10359304;28;20042;-68
2023/01/24 18:51:43;;;;;;;4.97;2.90;;;;;;;;;;10361150;28;20112;-65
2023/01/24 18:56:44;;;;;;;3.28;2.50;;;;;;;;;;10361015;28;20396;-47
2023/01/24 19:01:45;;;;;;;4.22;3.03;;;;;;;;;;10359383;28;20034;-65
2023/01/24 19:06:46;;;;;;;4.18;2.70;;;;;;;;;;10371756;28;20045;-55
2023/01/24 19:11:47;;;;;;;5.22;2.80;;;;;;;;;;10365208;28;20033;-53
2023/01/24 19:16:48;;;;;;;14.70;3.25;;;;;;;;;;10371163;28;20034;-51
2023/01/24 19:21:52;;;;;;;15.30;3.28;;;;;;;;;;10362175;28;20541;-53
2023/01/24 19:26:53;;;;;;;3.90;2.67;;;;;;;;;;10361172;28;20026;-52
2023/01/24 19:31:53;;;;;;;7.72;2.88;;;;;;;;;;10357758;28;20042;-57
2023/01/24 19:36:54;;;;;;;9.13;2.97;;;;;;;;;;10379024;28;20037;-64
2023/01/24 19:41:54;;;;;;;3.58;2.60;;;;;;;;;;10371370;28;20030;-54
2023/01/24 19:46:55;;;;;;;6.10;2.70;;;;;;;;;;10370445;28;20535;-46
2023/01/24 19:51:55;;;;;;;10.23;2.90;;;;;;;;;;10371630;28;20386;-46
2023/01/24 19:56:56;;;;;;;5.47;2.60;;;;;;;;;;10377162;28;20037;-46
2023/01/24 20:01:57;;;;;;;3.95;2.60;;;;;;;;;;10371112;28;20068;-46
2023/01/24 20:06:57;;;;;;;5.35;2.25;;;;;;;;;;10371249;28;20048;-46
2023/01/24 20:11:58;;;;;;;3.50;2.42;;;;;;;;;;10369865;28;20021;-49
2023/01/24 20:16:58;;;;;;;6.55;2.42;;;;;;;;;;10369851;28;20065;-47
2023/01/24 20:21:59;;;;;;;8.45;3.03;;;;;;;;;;10369885;28;20033;-59
2023/01/24 20:27:00;;;;;;;6.90;2.53;;;;;;;;;;10368576;28;20037;-48
2023/01/24 20:32:00;;;;;;;6.93;2.95;;;;;;;;;;10370191;28;20032;-66
2023/01/24 20:37:01;;;;;;;2.75;2.17;;;;;;;;;;10372377;28;20105;-46
2023/01/24 20:42:02;;;;;;;4.75;2.50;;;;;;;;;;10370174;28;20080;-53
2023/01/24 20:47:02;;;;;;;4.38;2.38;;;;;;;;;;10367615;28;20025;-54
2023/01/24 20:52:03;;;;;;;6.88;2.78;;;;;;;;;;10368709;28;20050;-48
2023/01/24 20:57:04;;;;;;;5.03;2.42;;;;;;;;;;10368831;28;20030;-46
2023/01/24 21:02:05;;;;;;;4.32;2.38;;;;;;;;;;10368777;28;20034;-47
2023/01/24 21:07:08;;;;;;;9.82;2.65;;;;;;;;;;10384288;28;20030;-51
2023/01/24 21:12:08;;;;;;;3.67;2.30;;;;;;;;;;10371908;28;20511;-51
2023/01/24 21:17:09;;;;;;;4.25;2.45;;;;;;;;;;10367898;28;20088;-49
2023/01/24 21:22:10;;;;;;;6.82;2.50;;;;;;;;;;10363031;28;20028;-50
2023/01/24 21:27:10;;;;;;;6.85;2.90;;;;;;;;;;10357971;28;20084;-51
2023/01/24 21:32:11;;;;;;;9.20;2.40;;;;;;;;;;10362136;28;20088;-49
2023/01/24 21:37:11;;;;;;;3.20;2.30;;;;;;;;;;10370131;28;20052;-65
2023/01/24 21:42:12;;;;;;;4.13;2.42;;;;;;;;;;10378180;28;20033;-65
2023/01/24 21:47:13;;;;;;;3.58;2.20;;;;;;;;;;10365815;28;20042;-60
2023/01/24 21:52:13;;;;;;;9.25;2.50;;;;;;;;;;10351275;28;20046;-63
2023/01/24 22:02:34;;;;;;;5.53;2.70;;;;;;;;;;10368333;28;20026;-69
2023/01/24 22:07:34;;;;;;;4.20;2.40;;;;;;;;;;10366868;28;20075;-69
2023/01/24 22:12:35;;;;;;;3.42;2.55;;;;;;;;;;10365038;28;20111;-68
2023/01/24 22:17:37;;;;;;;4.35;2.55;;;;;;;;;;10365261;28;20022;-52
2023/01/24 22:22:45;;;;;;;5.97;2.25;;;;;;;;;;10347550;28;20490;-68
2023/01/24 22:27:47;;;;;;;8.63;2.40;;;;;;;;;;10368312;28;20473;-65
2023/01/24 22:32:50;;;;;;;3.00;1.95;;;;;;;;;;10364740;28;20038;-58
2023/01/24 22:37:57;;;;;;;9.88;2.17;;;;;;;;;;10364756;28;20056;-69
2023/01/24 22:42:57;;;;;;;3.30;2.30;;;;;;;;;;10364760;28;20404;-60
2023/01/24 22:47:58;;;;;;;11.02;2.42;;;;;;;;;;10364624;28;20042;-67
2023/01/24 22:52:59;;;;;;;2.97;2.00;;;;;;;;;;10361317;28;20056;-70
2023/01/24 22:57:59;;;;;;;4.07;2.55;;;;;;;;;;10364267;28;20037;-71
2023/01/24 23:03:00;;;;;;;4.43;2.42;;;;;;;;;;10365670;28;20018;-71
2023/01/24 23:08:00;;;;;;;2.78;2.08;;;;;;;;;;10363678;28;20038;-70
2023/01/24 23:23:44;;;;;;;6.32;1.92;;;;;;;;;;10312817;28;20390;-53
2023/01/24 23:28:51;;;;;;;7.13;2.15;;;;;;;;;;10372363;28;20026;-51
2023/01/24 23:33:52;;;;;;;2.50;2.05;;;;;;;;;;10349312;28;20121;-73
2023/01/24 23:38:52;;;;;;;3.55;2.28;;;;;;;;;;10370409;28;20022;-73
2023/01/24 23:43:53;;;;;;;4.18;2.60;;;;;;;;;;10369986;28;20408;-63
2023/01/24 23:48:53;;;;;;;4.05;2.38;;;;;;;;;;10356332;28;20053;-51
2023/01/24 23:53:54;;;;;;;3.50;2.17;;;;;;;;;;10367453;28;20050;-51
2023/01/24 23:58:55;;;;;;;3.15;2.00;;;;;;;;;;10369362;28;20018;-52
